sensor_id;sensor_type;location;lat;lon;timestamp;pressure;altitude;pressure_sealevel;temperature;humidity
43436;BME280;36399;51.444;-2.018;2023-01-10T00:00:36;100502.31;;;3.18;100.00
43436;BME280;36399;51.444;-2.018;2023-01-10T00:03:03;100504.56;;;3.10;100.00
43436;BME280;36399;51.444;-2.018;2023-01-10T00:05:30;100515.63;;;3.06;100.00
43436;BME280;36399;51.444;-2.018;2023-01-10T00:07:56;100507.72;;;3.03;100.00
43436;BME280;36399;51.444;-2.018;2023-01-10T00:10:24;100512.50;;;2.94;100.00
43436;BME280;36399;51.444;-2.018;2023-01-10T00:12:50;100519.13;;;2.88;100.00
43436;BME280;36399;51.444;-2.018;2023-01-10T00:15:35;100519.88;;;2.85;100.00
43436;BME280;36399;51.444;-2.018;2023-01-10T00:18:01;100520.56;;;2.81;100.00
43436;BME280;36399;51.444;-2.018;2023-01-10T00:20:27;100522.88;;;2.75;100.00
43436;BME280;36399;51.444;-2.018;2023-01-10T00:22:53;100533.78;;;2.68;100.00
43436;BME280;36399;51.444;-2.018;2023-01-10T00:25:19;100535.28;;;2.63;100.00
43436;BME280;36399;51.444;-2.018;2023-01-10T00:27:51;100532.31;;;2.55;100.00
43436;BME280;36399;51.444;-2.018;2023-01-10T00:30:22;100531.09;;;2.47;100.00
43436;BME280;36399;51.444;-2.018;2023-01-10T00:32:48;100534.56;;;2.47;100.00
43436;BME280;36399;51.444;-2.018;2023-01-10T00:35:14;100525.56;;;2.39;100.00
43436;BME280;36399;51.444;-2.018;2023-01-10T00:37:40;100531.13;;;2.29;100.00
43436;BME280;36399;51.444;-2.018;2023-01-10T00:40:06;100539.03;;;2.32;100.00
43436;BME280;36399;51.444;-2.018;2023-01-10T00:42:36;100535.03;;;2.39;100.00
43436;BME280;36399;51.444;-2.018;2023-01-10T00:45:20;100540.97;;;2.36;100.00
43436;BME280;36399;51.444;-2.018;2023-01-10T00:47:50;100537.91;;;2.45;100.00
43436;BME280;36399;51.444;-2.018;2023-01-10T00:50:16;100538.72;;;2.44;100.00
43436;BME280;36399;51.444;-2.018;2023-01-10T00:52:42;100543.00;;;2.43;100.00
43436;BME280;36399;51.444;-2.018;2023-01-10T00:55:08;100549.00;;;2.42;100.00
43436;BME280;36399;51.444;-2.018;2023-01-10T00:57:34;100550.50;;;2.37;100.00
43436;BME280;36399;51.444;-2.018;2023-01-10T01:00:00;100555.69;;;2.37;100.00
43436;BME280;36399;51.444;-2.018;2023-01-10T01:02:26;100555.00;;;2.41;100.00
43436;BME280;36399;51.444;-2.018;2023-01-10T01:04:52;100550.25;;;2.50;100.00
43436;BME280;36399;51.444;-2.018;2023-01-10T01:07:18;100550.84;;;2.63;100.00
43436;BME280;36399;51.444;-2.018;2023-01-10T01:09:44;100545.22;;;2.53;100.00
43436;BME280;36399;51.444;-2.018;2023-01-10T01:12:28;100532.94;;;2.49;100.00
43436;BME280;36399;51.444;-2.018;2023-01-10T01:14:54;100539.88;;;2.50;100.00
43436;BME280;36399;51.444;-2.018;2023-01-10T01:17:20;100535.72;;;2.54;100.00
43436;BME280;36399;51.444;-2.018;2023-01-10T01:19:46;100534.09;;;2.56;100.00
43436;BME280;36399;51.444;-2.018;2023-01-10T01:22:12;100525.38;;;2.54;100.00
43436;BME280;36399;51.444;-2.018;2023-01-10T01:24:38;100525.94;;;2.66;100.00
43436;BME280;36399;51.444;-2.018;2023-01-10T01:27:04;100530.53;;;2.72;100.00
43436;BME280;36399;51.444;-2.018;2023-01-10T01:29:30;100528.47;;;2.84;100.00
43436;BME280;36399;51.444;-2.018;2023-01-10T01:31:56;100524.38;;;2.89;100.00
43436;BME280;36399;51.444;-2.018;2023-01-10T01:34:22;100523.97;;;2.99;100.00
43436;BME280;36399;51.444;-2.018;2023-01-10T01:36:48;100523.28;;;3.03;100.00
43436;BME280;36399;51.444;-2.018;2023-01-10T01:39:16;100523.84;;;3.15;100.00
43436;BME280;36399;51.444;-2.018;2023-01-10T01:41:42;100520.69;;;3.23;100.00
43436;BME280;36399;51.444;-2.018;2023-01-10T01:44:26;100512.47;;;3.33;100.00
43436;BME280;36399;51.444;-2.018;2023-01-10T01:47:05;100509.56;;;3.46;100.00
43436;BME280;36399;51.444;-2.018;2023-01-10T01:49:37;100515.88;;;3.53;100.00
43436;BME280;36399;51.444;-2.018;2023-01-10T01:52:12;100514.84;;;3.68;100.00
43436;BME280;36399;51.444;-2.018;2023-01-10T01:54:42;100504.81;;;3.77;100.00
43436;BME280;36399;51.444;-2.018;2023-01-10T01:57:16;100497.03;;;3.77;100.00
43436;BME280;36399;51.444;-2.018;2023-01-10T01:59:44;100507.66;;;3.84;100.00
43436;BME280;36399;51.444;-2.018;2023-01-10T02:02:19;100497.81;;;3.97;100.00
43436;BME280;36399;51.444;-2.018;2023-01-10T02:04:51;100494.28;;;3.95;100.00
43436;BME280;36399;51.444;-2.018;2023-01-10T02:07:18;100483.19;;;3.99;100.00
43436;BME280;36399;51.444;-2.018;2023-01-10T02:10:02;100473.78;;;4.03;100.00
43436;BME280;36399;51.444;-2.018;2023-01-10T02:12:31;100473.69;;;4.00;100.00
43436;BME280;36399;51.444;-2.018;2023-01-10T02:14:58;100489.50;;;4.06;100.00
43436;BME280;36399;51.444;-2.018;2023-01-10T02:17:24;100495.69;;;4.09;100.00
43436;BME280;36399;51.444;-2.018;2023-01-10T02:19:59;100485.03;;;4.24;100.00
43436;BME280;36399;51.444;-2.018;2023-01-10T02:33:40;100499.78;;;4.48;100.00
43436;BME280;36399;51.444;-2.018;2023-01-10T02:39:15;100507.19;;;4.61;100.00
43436;BME280;36399;51.444;-2.018;2023-01-10T02:42:00;100500.13;;;4.57;100.00
43436;BME280;36399;51.444;-2.018;2023-01-10T02:47:06;100476.00;;;4.61;100.00
43436;BME280;36399;51.444;-2.018;2023-01-10T02:50:15;100467.16;;;4.56;100.00
43436;BME280;36399;51.444;-2.018;2023-01-10T02:52:45;100462.06;;;4.59;100.00
43436;BME280;36399;51.444;-2.018;2023-01-10T02:55:11;100457.75;;;4.59;100.00
43436;BME280;36399;51.444;-2.018;2023-01-10T02:57:46;100455.88;;;4.55;100.00
43436;BME280;36399;51.444;-2.018;2023-01-10T03:00:32;100443.81;;;4.57;100.00
43436;BME280;36399;51.444;-2.018;2023-01-10T03:08:33;100431.97;;;4.65;100.00
43436;BME280;36399;51.444;-2.018;2023-01-10T03:11:02;100420.69;;;4.65;100.00
43436;BME280;36399;51.444;-2.018;2023-01-10T03:13:34;100421.88;;;4.73;100.00
43436;BME280;36399;51.444;-2.018;2023-01-10T03:16:03;100420.94;;;4.71;100.00
43436;BME280;36399;51.444;-2.018;2023-01-10T03:19:01;100418.28;;;4.69;100.00
43436;BME280;36399;51.444;-2.018;2023-01-10T03:21:29;100420.56;;;4.62;100.00
43436;BME280;36399;51.444;-2.018;2023-01-10T03:24:03;100424.22;;;4.67;100.00
43436;BME280;36399;51.444;-2.018;2023-01-10T03:26:49;100409.28;;;4.61;100.00
43436;BME280;36399;51.444;-2.018;2023-01-10T03:29:33;100405.38;;;4.49;100.00
43436;BME280;36399;51.444;-2.018;2023-01-10T03:32:03;100416.00;;;4.55;100.00
43436;BME280;36399;51.444;-2.018;2023-01-10T03:34:31;100408.69;;;4.44;100.00
43436;BME280;36399;51.444;-2.018;2023-01-10T03:37:16;100397.56;;;4.49;100.00
43436;BME280;36399;51.444;-2.018;2023-01-10T03:39:57;100403.22;;;4.37;100.00
43436;BME280;36399;51.444;-2.018;2023-01-10T03:45:41;100394.53;;;4.36;100.00
43436;BME280;36399;51.444;-2.018;2023-01-10T03:48:10;100395.19;;;4.31;100.00
43436;BME280;36399;51.444;-2.018;2023-01-10T03:50:38;100400.44;;;4.32;100.00
43436;BME280;36399;51.444;-2.018;2023-01-10T03:53:05;100390.38;;;4.41;100.00
43436;BME280;36399;51.444;-2.018;2023-01-10T03:55:31;100393.25;;;4.49;100.00
43436;BME280;36399;51.444;-2.018;2023-01-10T03:57:58;100389.06;;;4.53;100.00
43436;BME280;36399;51.444;-2.018;2023-01-10T04:00:24;100387.50;;;4.58;100.00
43436;BME280;36399;51.444;-2.018;2023-01-10T04:02:50;100379.75;;;4.59;100.00
43436;BME280;36399;51.444;-2.018;2023-01-10T04:05:17;100375.78;;;4.69;100.00
43436;BME280;36399;51.444;-2.018;2023-01-10T04:07:42;100367.03;;;4.67;100.00
43436;BME280;36399;51.444;-2.018;2023-01-10T04:10:09;100361.19;;;4.72;100.00
43436;BME280;36399;51.444;-2.018;2023-01-10T04:12:35;100364.03;;;4.80;100.00
43436;BME280;36399;51.444;-2.018;2023-01-10T04:15:01;100359.19;;;4.91;100.00
43436;BME280;36399;51.444;-2.018;2023-01-10T04:17:27;100365.28;;;4.91;100.00
43436;BME280;36399;51.444;-2.018;2023-01-10T04:19:53;100360.19;;;4.94;100.00
43436;BME280;36399;51.444;-2.018;2023-01-10T04:22:19;100359.44;;;4.98;100.00
43436;BME280;36399;51.444;-2.018;2023-01-10T04:24:45;100355.91;;;4.96;100.00
43436;BME280;36399;51.444;-2.018;2023-01-10T04:27:13;100363.03;;;5.02;100.00
43436;BME280;36399;51.444;-2.018;2023-01-10T04:29:39;100353.31;;;4.96;100.00
43436;BME280;36399;51.444;-2.018;2023-01-10T04:32:05;100364.66;;;4.98;100.00
43436;BME280;36399;51.444;-2.018;2023-01-10T04:34:31;100356.22;;;5.05;100.00
43436;BME280;36399;51.444;-2.018;2023-01-10T04:36:56;100354.53;;;5.07;100.00
43436;BME280;36399;51.444;-2.018;2023-01-10T04:39:23;100351.84;;;5.04;100.00
43436;BME280;36399;51.444;-2.018;2023-01-10T04:41:48;100347.66;;;5.10;100.00
43436;BME280;36399;51.444;-2.018;2023-01-10T04:44:14;100339.03;;;5.11;100.00
43436;BME280;36399;51.444;-2.018;2023-01-10T04:46:40;100329.47;;;5.10;100.00
43436;BME280;36399;51.444;-2.018;2023-01-10T04:49:08;100334.63;;;5.08;100.00
43436;BME280;36399;51.444;-2.018;2023-01-10T04:51:34;100327.44;;;5.01;100.00
43436;BME280;36399;51.444;-2.018;2023-01-10T04:54:00;100331.75;;;5.00;100.00
43436;BME280;36399;51.444;-2.018;2023-01-10T04:56:26;100332.59;;;4.99;100.00
43436;BME280;36399;51.444;-2.018;2023-01-10T04:58:52;100324.78;;;4.99;100.00
43436;BME280;36399;51.444;-2.018;2023-01-10T05:01:21;100323.88;;;4.97;100.00
43436;BME280;36399;51.444;-2.018;2023-01-10T05:03:52;100317.78;;;4.97;100.00
43436;BME280;36399;51.444;-2.018;2023-01-10T05:06:19;100305.81;;;5.02;100.00
43436;BME280;36399;51.444;-2.018;2023-01-10T05:08:45;100311.16;;;5.06;100.00
43436;BME280;36399;51.444;-2.018;2023-01-10T05:11:12;100307.53;;;5.01;100.00
43436;BME280;36399;51.444;-2.018;2023-01-10T05:13:38;100291.31;;;5.10;100.00
43436;BME280;36399;51.444;-2.018;2023-01-10T05:16:05;100299.38;;;5.18;100.00
43436;BME280;36399;51.444;-2.018;2023-01-10T05:18:31;100285.03;;;5.30;100.00
43436;BME280;36399;51.444;-2.018;2023-01-10T05:21:02;100279.84;;;5.30;100.00
43436;BME280;36399;51.444;-2.018;2023-01-10T05:23:29;100277.38;;;5.35;100.00
43436;BME280;36399;51.444;-2.018;2023-01-10T05:25:55;100268.81;;;5.39;100.00
43436;BME280;36399;51.444;-2.018;2023-01-10T05:28:21;100263.59;;;5.39;100.00
43436;BME280;36399;51.444;-2.018;2023-01-10T05:30:47;100249.84;;;5.43;100.00
43436;BME280;36399;51.444;-2.018;2023-01-10T05:33:13;100246.50;;;5.47;100.00
43436;BME280;36399;51.444;-2.018;2023-01-10T05:35:39;100246.41;;;5.44;100.00
43436;BME280;36399;51.444;-2.018;2023-01-10T05:38:05;100239.53;;;5.46;100.00
43436;BME280;36399;51.444;-2.018;2023-01-10T05:40:31;100236.16;;;5.50;100.00
43436;BME280;36399;51.444;-2.018;2023-01-10T05:42:57;100227.63;;;5.54;100.00
43436;BME280;36399;51.444;-2.018;2023-01-10T05:45:23;100220.63;;;5.53;100.00
43436;BME280;36399;51.444;-2.018;2023-01-10T05:47:52;100213.66;;;5.52;100.00
43436;BME280;36399;51.444;-2.018;2023-01-10T05:50:18;100207.53;;;5.50;100.00
43436;BME280;36399;51.444;-2.018;2023-01-10T05:52:44;100208.63;;;5.58;100.00
43436;BME280;36399;51.444;-2.018;2023-01-10T05:55:10;100198.03;;;5.52;100.00
43436;BME280;36399;51.444;-2.018;2023-01-10T05:57:36;100196.38;;;5.54;100.00
43436;BME280;36399;51.444;-2.018;2023-01-10T06:00:04;100180.66;;;5.51;100.00
43436;BME280;36399;51.444;-2.018;2023-01-10T06:02:31;100174.56;;;5.51;100.00
43436;BME280;36399;51.444;-2.018;2023-01-10T06:04:57;100190.38;;;5.57;100.00
43436;BME280;36399;51.444;-2.018;2023-01-10T06:07:23;100179.06;;;5.56;100.00
43436;BME280;36399;51.444;-2.018;2023-01-10T06:09:49;100164.25;;;5.54;100.00
43436;BME280;36399;51.444;-2.018;2023-01-10T06:12:16;100167.78;;;5.56;100.00
43436;BME280;36399;51.444;-2.018;2023-01-10T06:14:45;100153.03;;;5.56;100.00
43436;BME280;36399;51.444;-2.018;2023-01-10T06:17:12;100152.34;;;5.63;100.00
43436;BME280;36399;51.444;-2.018;2023-01-10T06:19:38;100143.03;;;5.71;100.00
43436;BME280;36399;51.444;-2.018;2023-01-10T06:22:04;100142.38;;;5.79;100.00
43436;BME280;36399;51.444;-2.018;2023-01-10T06:24:30;100130.34;;;5.84;100.00
43436;BME280;36399;51.444;-2.018;2023-01-10T06:26:56;100117.34;;;5.84;100.00
43436;BME280;36399;51.444;-2.018;2023-01-10T06:29:22;100125.25;;;5.88;100.00
43436;BME280;36399;51.444;-2.018;2023-01-10T06:31:48;100121.84;;;5.89;100.00
43436;BME280;36399;51.444;-2.018;2023-01-10T06:34:14;100117.41;;;5.87;100.00
43436;BME280;36399;51.444;-2.018;2023-01-10T06:36:40;100115.72;;;5.89;100.00
43436;BME280;36399;51.444;-2.018;2023-01-10T06:39:06;100114.84;;;5.88;100.00
43436;BME280;36399;51.444;-2.018;2023-01-10T06:41:32;100106.16;;;5.88;100.00
43436;BME280;36399;51.444;-2.018;2023-01-10T06:43:58;100089.69;;;5.89;100.00
43436;BME280;36399;51.444;-2.018;2023-01-10T06:46:24;100086.34;;;5.93;100.00
43436;BME280;36399;51.444;-2.018;2023-01-10T06:48:50;100099.56;;;6.00;100.00
43436;BME280;36399;51.444;-2.018;2023-01-10T06:51:16;100092.50;;;5.96;100.00
43436;BME280;36399;51.444;-2.018;2023-01-10T06:53:42;100090.84;;;6.00;100.00
43436;BME280;36399;51.444;-2.018;2023-01-10T06:56:09;100099.66;;;6.05;100.00
43436;BME280;36399;51.444;-2.018;2023-01-10T06:58:36;100091.84;;;6.05;100.00
43436;BME280;36399;51.444;-2.018;2023-01-10T07:01:06;100089.31;;;6.08;100.00
43436;BME280;36399;51.444;-2.018;2023-01-10T07:03:37;100077.31;;;6.15;100.00
43436;BME280;36399;51.444;-2.018;2023-01-10T07:06:05;100084.25;;;6.14;100.00
43436;BME280;36399;51.444;-2.018;2023-01-10T07:08:36;100085.09;;;6.13;100.00
43436;BME280;36399;51.444;-2.018;2023-01-10T07:11:02;100066.94;;;6.16;100.00
43436;BME280;36399;51.444;-2.018;2023-01-10T07:13:28;100071.38;;;6.20;100.00
43436;BME280;36399;51.444;-2.018;2023-01-10T07:16:20;100076.66;;;6.23;100.00
43436;BME280;36399;51.444;-2.018;2023-01-10T07:18:46;100064.50;;;6.24;100.00
43436;BME280;36399;51.444;-2.018;2023-01-10T07:21:12;100058.47;;;6.25;100.00
43436;BME280;36399;51.444;-2.018;2023-01-10T07:23:38;100052.44;;;6.27;100.00
43436;BME280;36399;51.444;-2.018;2023-01-10T07:26:06;100050.75;;;6.29;100.00
43436;BME280;36399;51.444;-2.018;2023-01-10T07:28:33;100066.47;;;6.32;100.00
43436;BME280;36399;51.444;-2.018;2023-01-10T07:31:00;100057.81;;;6.33;100.00
43436;BME280;36399;51.444;-2.018;2023-01-10T07:33:27;100051.75;;;6.35;100.00
43436;BME280;36399;51.444;-2.018;2023-01-10T07:35:54;100040.41;;;6.32;100.00
43436;BME280;36399;51.444;-2.018;2023-01-10T07:38:20;100033.50;;;6.35;100.00
43436;BME280;36399;51.444;-2.018;2023-01-10T07:40:46;100035.31;;;6.39;100.00
43436;BME280;36399;51.444;-2.018;2023-01-10T07:43:12;100034.50;;;6.41;100.00
43436;BME280;36399;51.444;-2.018;2023-01-10T07:45:38;100024.06;;;6.40;100.00
43436;BME280;36399;51.444;-2.018;2023-01-10T07:48:04;100035.47;;;6.45;100.00
43436;BME280;36399;51.444;-2.018;2023-01-10T07:50:33;100018.19;;;6.50;100.00
43436;BME280;36399;51.444;-2.018;2023-01-10T07:53:00;100026.00;;;6.50;100.00
43436;BME280;36399;51.444;-2.018;2023-01-10T07:55:27;100013.91;;;6.53;100.00
43436;BME280;36399;51.444;-2.018;2023-01-10T07:57:53;99983.44;;;6.51;100.00
43436;BME280;36399;51.444;-2.018;2023-01-10T08:00:20;100006.09;;;6.53;100.00
43436;BME280;36399;51.444;-2.018;2023-01-10T08:02:47;100006.19;;;6.58;100.00
43436;BME280;36399;51.444;-2.018;2023-01-10T08:05:14;99988.78;;;6.57;100.00
43436;BME280;36399;51.444;-2.018;2023-01-10T08:07:40;99997.53;;;6.59;100.00
43436;BME280;36399;51.444;-2.018;2023-01-10T08:10:06;99994.06;;;6.60;100.00
43436;BME280;36399;51.444;-2.018;2023-01-10T08:12:32;99983.66;;;6.61;100.00
43436;BME280;36399;51.444;-2.018;2023-01-10T08:14:58;99981.97;;;6.63;100.00
43436;BME280;36399;51.444;-2.018;2023-01-10T08:17:24;99993.34;;;6.67;100.00
43436;BME280;36399;51.444;-2.018;2023-01-10T08:19:50;99990.69;;;6.65;100.00
43436;BME280;36399;51.444;-2.018;2023-01-10T08:22:16;99985.47;;;6.65;100.00
43436;BME280;36399;51.444;-2.018;2023-01-10T08:24:42;99981.19;;;6.68;100.00
43436;BME280;36399;51.444;-2.018;2023-01-10T08:27:08;99976.84;;;6.68;100.00
43436;BME280;36399;51.444;-2.018;2023-01-10T08:29:34;99974.25;;;6.70;100.00
43436;BME280;36399;51.444;-2.018;2023-01-10T08:32:00;99955.97;;;6.68;100.00
43436;BME280;36399;51.444;-2.018;2023-01-10T08:34:26;99950.00;;;6.74;100.00
43436;BME280;36399;51.444;-2.018;2023-01-10T08:36:53;99969.13;;;6.74;100.00
43436;BME280;36399;51.444;-2.018;2023-01-10T08:39:20;99975.22;;;6.73;100.00
43436;BME280;36399;51.444;-2.018;2023-01-10T08:41:51;99966.56;;;6.76;100.00
43436;BME280;36399;51.444;-2.018;2023-01-10T08:44:17;99946.53;;;6.75;100.00
43436;BME280;36399;51.444;-2.018;2023-01-10T08:46:44;99949.28;;;6.79;100.00
43436;BME280;36399;51.444;-2.018;2023-01-10T08:49:10;99951.09;;;6.83;100.00
43436;BME280;36399;51.444;-2.018;2023-01-10T08:51:38;99949.38;;;6.85;100.00
43436;BME280;36399;51.444;-2.018;2023-01-10T08:54:04;99950.41;;;6.93;100.00
43436;BME280;36399;51.444;-2.018;2023-01-10T08:56:30;99899.06;;;6.92;100.00
43436;BME280;36399;51.444;-2.018;2023-01-10T08:58:56;99924.38;;;6.96;100.00
43436;BME280;36399;51.444;-2.018;2023-01-10T09:01:22;99910.47;;;6.97;100.00
43436;BME280;36399;51.444;-2.018;2023-01-10T09:03:48;99928.78;;;6.99;100.00
43436;BME280;36399;51.444;-2.018;2023-01-10T09:06:14;99912.28;;;7.02;100.00
43436;BME280;36399;51.444;-2.018;2023-01-10T09:08:40;99916.66;;;7.03;100.00
43436;BME280;36399;51.444;-2.018;2023-01-10T09:11:06;99911.53;;;7.09;100.00
43436;BME280;36399;51.444;-2.018;2023-01-10T09:13:32;99878.53;;;7.11;100.00
43436;BME280;36399;51.444;-2.018;2023-01-10T09:15:59;99892.56;;;7.19;100.00
43436;BME280;36399;51.444;-2.018;2023-01-10T09:18:25;99894.28;;;7.17;100.00
43436;BME280;36399;51.444;-2.018;2023-01-10T09:20:51;99874.34;;;7.20;100.00
43436;BME280;36399;51.444;-2.018;2023-01-10T09:23:20;99883.06;;;7.22;100.00
43436;BME280;36399;51.444;-2.018;2023-01-10T09:25:48;99871.84;;;7.28;100.00
43436;BME280;36399;51.444;-2.018;2023-01-10T09:28:15;99870.16;;;7.30;100.00
43436;BME280;36399;51.444;-2.018;2023-01-10T09:30:42;99886.75;;;7.32;100.00
43436;BME280;36399;51.444;-2.018;2023-01-10T09:33:09;99885.97;;;7.38;100.00
43436;BME280;36399;51.444;-2.018;2023-01-10T09:35:37;99882.56;;;7.43;100.00
43436;BME280;36399;51.444;-2.018;2023-01-10T09:38:05;99866.13;;;7.49;100.00
43436;BME280;36399;51.444;-2.018;2023-01-10T09:46:05;99877.63;;;7.62;100.00
43436;BME280;36399;51.444;-2.018;2023-01-10T09:48:43;99879.41;;;7.66;100.00
43436;BME280;36399;51.444;-2.018;2023-01-10T09:51:34;99870.75;;;7.68;100.00
43436;BME280;36399;51.444;-2.018;2023-01-10T09:54:04;99869.06;;;7.72;100.00
43436;BME280;36399;51.444;-2.018;2023-01-10T09:56:32;99873.47;;;7.76;100.00
43436;BME280;36399;51.444;-2.018;2023-01-10T09:58:59;99875.31;;;7.81;100.00
43436;BME280;36399;51.444;-2.018;2023-01-10T10:01:32;99881.47;;;7.85;100.00
43436;BME280;36399;51.444;-2.018;2023-01-10T10:04:14;99866.66;;;7.85;100.00
43436;BME280;36399;51.444;-2.018;2023-01-10T10:06:41;99854.53;;;7.90;100.00
43436;BME280;36399;51.444;-2.018;2023-01-10T10:09:12;99856.38;;;7.96;100.00
43436;BME280;36399;51.444;-2.018;2023-01-10T10:25:16;99852.53;;;8.35;100.00
43436;BME280;36399;51.444;-2.018;2023-01-10T10:36:02;99852.88;;;8.65;100.00
43436;BME280;36399;51.444;-2.018;2023-01-10T10:38:34;99853.78;;;8.69;100.00
43436;BME280;36399;51.444;-2.018;2023-01-10T10:41:02;99835.53;;;8.76;100.00
43436;BME280;36399;51.444;-2.018;2023-01-10T10:43:36;99839.16;;;8.86;100.00
43436;BME280;36399;51.444;-2.018;2023-01-10T10:46:21;99843.59;;;8.95;100.00
43436;BME280;36399;51.444;-2.018;2023-01-10T10:48:49;99833.19;;;9.01;100.00
43436;BME280;36399;51.444;-2.018;2023-01-10T10:51:39;99831.50;;;9.07;100.00
43436;BME280;36399;51.444;-2.018;2023-01-10T10:54:11;99830.69;;;9.14;100.00
43436;BME280;36399;51.444;-2.018;2023-01-10T10:56:38;99829.00;;;9.24;100.00
43436;BME280;36399;51.444;-2.018;2023-01-10T10:59:05;99827.41;;;9.41;100.00
43436;BME280;36399;51.444;-2.018;2023-01-10T11:01:31;99820.50;;;9.54;100.00
43436;BME280;36399;51.444;-2.018;2023-01-10T11:04:00;99804.09;;;9.87;100.00
43436;BME280;36399;51.444;-2.018;2023-01-10T11:06:29;99798.97;;;10.10;100.00
43436;BME280;36399;51.444;-2.018;2023-01-10T11:08:59;99801.69;;;10.30;100.00
43436;BME280;36399;51.444;-2.018;2023-01-10T11:11:37;99804.38;;;10.43;100.00
43436;BME280;36399;51.444;-2.018;2023-01-10T11:14:07;99804.41;;;10.48;100.00
43436;BME280;36399;51.444;-2.018;2023-01-10T11:16:41;99791.31;;;10.60;100.00
43436;BME280;36399;51.444;-2.018;2023-01-10T11:19:22;99795.69;;;10.64;100.00
43436;BME280;36399;51.444;-2.018;2023-01-10T11:22:02;99786.06;;;10.66;100.00
43436;BME280;36399;51.444;-2.018;2023-01-10T11:24:37;99792.19;;;10.67;100.00
43436;BME280;36399;51.444;-2.018;2023-01-10T11:27:14;99775.56;;;10.72;100.00
43436;BME280;36399;51.444;-2.018;2023-01-10T11:30:08;99768.56;;;10.78;100.00
43436;BME280;36399;51.444;-2.018;2023-01-10T11:35:31;99750.19;;;10.81;100.00
43436;BME280;36399;51.444;-2.018;2023-01-10T11:38:03;99753.69;;;10.78;100.00
43436;BME280;36399;51.444;-2.018;2023-01-10T11:40:30;99744.06;;;10.85;100.00
43436;BME280;36399;51.444;-2.018;2023-01-10T11:42:58;99728.31;;;10.85;100.00
43436;BME280;36399;51.444;-2.018;2023-01-10T11:45:31;99731.81;;;10.87;100.00
43436;BME280;36399;51.444;-2.018;2023-01-10T11:50:26;99719.56;;;10.89;100.00
43436;BME280;36399;51.444;-2.018;2023-01-10T11:52:54;99717.81;;;10.97;100.00
43436;BME280;36399;51.444;-2.018;2023-01-10T11:55:23;99710.81;;;10.93;100.00
43436;BME280;36399;51.444;-2.018;2023-01-10T12:00:31;99700.31;;;11.02;100.00
43436;BME280;36399;51.444;-2.018;2023-01-10T12:02:59;99687.19;;;11.05;100.00
43436;BME280;36399;51.444;-2.018;2023-01-10T12:05:26;99689.78;;;11.08;100.00
43436;BME280;36399;51.444;-2.018;2023-01-10T12:08:04;99684.53;;;11.14;100.00
43436;BME280;36399;51.444;-2.018;2023-01-10T12:10:35;99681.03;;;11.12;100.00
43436;BME280;36399;51.444;-2.018;2023-01-10T12:13:15;99684.53;;;11.16;100.00
43436;BME280;36399;51.444;-2.018;2023-01-10T12:15:41;99670.50;;;11.15;100.00
43436;BME280;36399;51.444;-2.018;2023-01-10T12:18:09;99667.00;;;11.22;100.00
43436;BME280;36399;51.444;-2.018;2023-01-10T12:20:53;99663.47;;;11.23;100.00
43436;BME280;36399;51.444;-2.018;2023-01-10T12:23:24;99661.72;;;11.25;100.00
43436;BME280;36399;51.444;-2.018;2023-01-10T12:25:50;99650.34;;;11.28;100.00
43436;BME280;36399;51.444;-2.018;2023-01-10T12:28:22;99659.09;;;11.27;100.00
43436;BME280;36399;51.444;-2.018;2023-01-10T12:30:52;99640.69;;;11.31;100.00
43436;BME280;36399;51.444;-2.018;2023-01-10T12:33:26;99652.06;;;11.35;100.00
43436;BME280;36399;51.444;-2.018;2023-01-10T12:38:56;99645.91;;;11.41;100.00
43436;BME280;36399;51.444;-2.018;2023-01-10T12:42:01;99630.13;;;11.41;100.00
43436;BME280;36399;51.444;-2.018;2023-01-10T12:45:22;99616.13;;;11.42;100.00
43436;BME280;36399;51.444;-2.018;2023-01-10T12:48:16;99622.25;;;11.45;100.00
43436;BME280;36399;51.444;-2.018;2023-01-10T12:50:44;99603.84;;;11.44;100.00
43436;BME280;36399;51.444;-2.018;2023-01-10T12:55:56;99592.47;;;11.42;100.00
43436;BME280;36399;51.444;-2.018;2023-01-10T12:58:31;99606.50;;;11.39;100.00
43436;BME280;36399;51.444;-2.018;2023-01-10T13:01:01;99593.34;;;11.37;100.00
43436;BME280;36399;51.444;-2.018;2023-01-10T13:03:30;99590.72;;;11.41;100.00
43436;BME280;36399;51.444;-2.018;2023-01-10T13:05:57;99586.34;;;11.39;100.00
43436;BME280;36399;51.444;-2.018;2023-01-10T13:08:29;99591.59;;;11.43;100.00
43436;BME280;36399;51.444;-2.018;2023-01-10T13:10:58;99575.84;;;11.39;100.00
43436;BME280;36399;51.444;-2.018;2023-01-10T13:13:35;99567.94;;;11.43;100.00
43436;BME280;36399;51.444;-2.018;2023-01-10T13:21:34;99557.41;;;11.52;100.00
43436;BME280;36399;51.444;-2.018;2023-01-10T13:24:22;99552.09;;;11.58;100.00
43436;BME280;36399;51.444;-2.018;2023-01-10T13:26:55;99545.16;;;11.49;100.00
43436;BME280;36399;51.444;-2.018;2023-01-10T13:29:42;99546.03;;;11.50;100.00
43436;BME280;36399;51.444;-2.018;2023-01-10T13:32:20;99528.53;;;11.46;100.00
43436;BME280;36399;51.444;-2.018;2023-01-10T13:34:47;99520.63;;;11.47;100.00
43436;BME280;36399;51.444;-2.018;2023-01-10T13:37:25;99520.66;;;11.46;100.00
43436;BME280;36399;51.444;-2.018;2023-01-10T13:39:57;99540.78;;;11.44;100.00
43436;BME280;36399;51.444;-2.018;2023-01-10T13:42:32;99536.41;;;11.43;100.00
43436;BME280;36399;51.444;-2.018;2023-01-10T13:45:20;99539.03;;;11.46;100.00
43436;BME280;36399;51.444;-2.018;2023-01-10T14:08:54;99498.50;;;11.77;100.00
43436;BME280;36399;51.444;-2.018;2023-01-10T14:11:23;99497.63;;;11.77;100.00
43436;BME280;36399;51.444;-2.018;2023-01-10T14:13:53;99502.94;;;11.70;100.00
43436;BME280;36399;51.444;-2.018;2023-01-10T14:16:38;99497.66;;;11.78;100.00
43436;BME280;36399;51.444;-2.018;2023-01-10T14:19:18;99472.19;;;11.83;100.00
43436;BME280;36399;51.444;-2.018;2023-01-10T14:21:51;99505.53;;;11.81;100.00
43436;BME280;36399;51.444;-2.018;2023-01-10T14:27:00;99481.84;;;11.83;100.00
43436;BME280;36399;51.444;-2.018;2023-01-10T14:29:31;99482.69;;;11.86;100.00
43436;BME280;36399;51.444;-2.018;2023-01-10T14:31:59;99466.00;;;11.90;100.00